sensor_id;sensor_type;location;lat;lon;timestamp;P1;durP1;ratioP1;P2;durP2;ratioP2
71696;SDS011;68167;59.120;37.898;2023-08-12T00:00:38;11.13;;;9.40;;
71696;SDS011;68167;59.120;37.898;2023-08-12T00:03:04;11.23;;;9.00;;
71696;SDS011;68167;59.120;37.898;2023-08-12T00:05:30;10.10;;;8.50;;
71696;SDS011;68167;59.120;37.898;2023-08-12T00:07:57;10.93;;;9.23;;
71696;SDS011;68167;59.120;37.898;2023-08-12T00:10:23;10.60;;;8.67;;
71696;SDS011;68167;59.120;37.898;2023-08-12T00:12:49;10.23;;;9.20;;
71696;SDS011;68167;59.120;37.898;2023-08-12T00:15:16;14.23;;;8.97;;
71696;SDS011;68167;59.120;37.898;2023-08-12T00:17:42;11.63;;;9.67;;
71696;SDS011;68167;59.120;37.898;2023-08-12T00:20:09;10.50;;;9.40;;
71696;SDS011;68167;59.120;37.898;2023-08-12T00:22:37;11.70;;;10.07;;
71696;SDS011;68167;59.120;37.898;2023-08-12T00:25:05;11.23;;;9.70;;
71696;SDS011;68167;59.120;37.898;2023-08-12T00:27:32;11.03;;;8.80;;
71696;SDS011;68167;59.120;37.898;2023-08-12T00:29:58;9.77;;;8.57;;
71696;SDS011;68167;59.120;37.898;2023-08-12T00:32:24;13.70;;;9.63;;
71696;SDS011;68167;59.120;37.898;2023-08-12T00:34:50;13.33;;;10.47;;
71696;SDS011;68167;59.120;37.898;2023-08-12T00:37:17;10.20;;;9.00;;
71696;SDS011;68167;59.120;37.898;2023-08-12T00:39:43;11.47;;;9.27;;
71696;SDS011;68167;59.120;37.898;2023-08-12T00:42:09;12.27;;;8.70;;
71696;SDS011;68167;59.120;37.898;2023-08-12T00:44:36;11.97;;;9.33;;
71696;SDS011;68167;59.120;37.898;2023-08-12T00:47:02;10.80;;;9.03;;
71696;SDS011;68167;59.120;37.898;2023-08-12T00:49:29;11.83;;;9.10;;
71696;SDS011;68167;59.120;37.898;2023-08-12T00:51:58;9.63;;;8.43;;
71696;SDS011;68167;59.120;37.898;2023-08-12T00:54:25;9.30;;;8.37;;
71696;SDS011;68167;59.120;37.898;2023-08-12T00:56:52;9.77;;;8.87;;
71696;SDS011;68167;59.120;37.898;2023-08-12T00:59:19;10.73;;;9.17;;
71696;SDS011;68167;59.120;37.898;2023-08-12T01:01:46;10.80;;;8.90;;
71696;SDS011;68167;59.120;37.898;2023-08-12T01:04:13;14.90;;;9.17;;
71696;SDS011;68167;59.120;37.898;2023-08-12T01:06:39;12.30;;;9.30;;
71696;SDS011;68167;59.120;37.898;2023-08-12T01:09:06;9.97;;;8.97;;
71696;SDS011;68167;59.120;37.898;2023-08-12T01:11:45;11.57;;;9.40;;
71696;SDS011;68167;59.120;37.898;2023-08-12T01:14:27;9.47;;;8.33;;
71696;SDS011;68167;59.120;37.898;2023-08-12T01:16:59;11.93;;;9.03;;
71696;SDS011;68167;59.120;37.898;2023-08-12T01:19:35;10.63;;;9.23;;
71696;SDS011;68167;59.120;37.898;2023-08-12T01:22:04;10.20;;;9.13;;
71696;SDS011;68167;59.120;37.898;2023-08-12T01:24:33;10.17;;;9.17;;
71696;SDS011;68167;59.120;37.898;2023-08-12T01:27:04;12.70;;;9.73;;
71696;SDS011;68167;59.120;37.898;2023-08-12T01:29:32;10.47;;;9.37;;
71696;SDS011;68167;59.120;37.898;2023-08-12T01:34:52;9.47;;;8.47;;
71696;SDS011;68167;59.120;37.898;2023-08-12T01:37:28;10.87;;;9.50;;
71696;SDS011;68167;59.120;37.898;2023-08-12T01:39:56;11.43;;;9.07;;
71696;SDS011;68167;59.120;37.898;2023-08-12T01:42:27;16.00;;;10.07;;
71696;SDS011;68167;59.120;37.898;2023-08-12T01:44:54;15.50;;;13.80;;
71696;SDS011;68167;59.120;37.898;2023-08-12T01:47:22;13.00;;;10.43;;
71696;SDS011;68167;59.120;37.898;2023-08-12T01:49:48;10.27;;;9.33;;
71696;SDS011;68167;59.120;37.898;2023-08-12T01:52:14;14.10;;;9.77;;
71696;SDS011;68167;59.120;37.898;2023-08-12T01:54:41;11.17;;;10.00;;
71696;SDS011;68167;59.120;37.898;2023-08-12T01:57:07;12.07;;;10.83;;
71696;SDS011;68167;59.120;37.898;2023-08-12T01:59:35;11.80;;;10.23;;
71696;SDS011;68167;59.120;37.898;2023-08-12T02:02:01;12.70;;;10.40;;
71696;SDS011;68167;59.120;37.898;2023-08-12T02:04:29;12.30;;;10.40;;
71696;SDS011;68167;59.120;37.898;2023-08-12T02:06:55;11.67;;;10.47;;
71696;SDS011;68167;59.120;37.898;2023-08-12T02:09:23;12.33;;;11.03;;
71696;SDS011;68167;59.120;37.898;2023-08-12T02:11:49;13.30;;;10.30;;
71696;SDS011;68167;59.120;37.898;2023-08-12T02:14:15;24.30;;;20.87;;
71696;SDS011;68167;59.120;37.898;2023-08-12T02:16:42;11.60;;;9.80;;
71696;SDS011;68167;59.120;37.898;2023-08-12T02:19:08;12.67;;;10.63;;
71696;SDS011;68167;59.120;37.898;2023-08-12T02:21:34;12.50;;;10.07;;
71696;SDS011;68167;59.120;37.898;2023-08-12T02:24:01;13.57;;;10.43;;
71696;SDS011;68167;59.120;37.898;2023-08-12T02:26:27;11.77;;;10.33;;
71696;SDS011;68167;59.120;37.898;2023-08-12T02:28:53;11.53;;;10.43;;
71696;SDS011;68167;59.120;37.898;2023-08-12T02:31:19;18.00;;;16.10;;
71696;SDS011;68167;59.120;37.898;2023-08-12T02:33:47;11.87;;;10.50;;
71696;SDS011;68167;59.120;37.898;2023-08-12T02:36:15;11.63;;;10.47;;
71696;SDS011;68167;59.120;37.898;2023-08-12T02:38:42;14.57;;;11.03;;
71696;SDS011;68167;59.120;37.898;2023-08-12T02:41:09;13.47;;;11.53;;
71696;SDS011;68167;59.120;37.898;2023-08-12T02:43:35;12.60;;;11.20;;
71696;SDS011;68167;59.120;37.898;2023-08-12T02:46:04;12.83;;;11.23;;
71696;SDS011;68167;59.120;37.898;2023-08-12T02:48:31;12.00;;;10.90;;
71696;SDS011;68167;59.120;37.898;2023-08-12T02:50:57;12.50;;;11.20;;
71696;SDS011;68167;59.120;37.898;2023-08-12T02:53:24;11.77;;;10.67;;
71696;SDS011;68167;59.120;37.898;2023-08-12T02:55:50;13.77;;;10.87;;
71696;SDS011;68167;59.120;37.898;2023-08-12T02:58:17;13.60;;;11.97;;
71696;SDS011;68167;59.120;37.898;2023-08-12T03:00:43;12.40;;;11.20;;
71696;SDS011;68167;59.120;37.898;2023-08-12T03:03:10;12.97;;;11.03;;
71696;SDS011;68167;59.120;37.898;2023-08-12T03:05:36;12.20;;;11.00;;
71696;SDS011;68167;59.120;37.898;2023-08-12T03:08:04;14.80;;;12.03;;
71696;SDS011;68167;59.120;37.898;2023-08-12T03:10:33;12.33;;;11.07;;
71696;SDS011;68167;59.120;37.898;2023-08-12T03:13:03;12.77;;;11.50;;
71696;SDS011;68167;59.120;37.898;2023-08-12T03:15:29;12.43;;;11.13;;
71696;SDS011;68167;59.120;37.898;2023-08-12T03:17:56;12.60;;;11.30;;
71696;SDS011;68167;59.120;37.898;2023-08-12T03:20:27;13.60;;;12.17;;
71696;SDS011;68167;59.120;37.898;2023-08-12T03:22:54;12.97;;;11.57;;
71696;SDS011;68167;59.120;37.898;2023-08-12T03:25:21;14.27;;;11.13;;
71696;SDS011;68167;59.120;37.898;2023-08-12T03:27:48;15.03;;;11.33;;
71696;SDS011;68167;59.120;37.898;2023-08-12T03:30:15;13.37;;;11.53;;
71696;SDS011;68167;59.120;37.898;2023-08-12T03:32:43;14.87;;;11.77;;
71696;SDS011;68167;59.120;37.898;2023-08-12T03:35:10;13.67;;;11.47;;
71696;SDS011;68167;59.120;37.898;2023-08-12T03:37:36;15.37;;;12.27;;
71696;SDS011;68167;59.120;37.898;2023-08-12T03:40:04;15.37;;;10.93;;
71696;SDS011;68167;59.120;37.898;2023-08-12T03:42:31;18.93;;;12.30;;
71696;SDS011;68167;59.120;37.898;2023-08-12T03:45:02;21.03;;;11.90;;
71696;SDS011;68167;59.120;37.898;2023-08-12T03:47:30;27.53;;;12.17;;
71696;SDS011;68167;59.120;37.898;2023-08-12T03:49:56;16.67;;;12.50;;
71696;SDS011;68167;59.120;37.898;2023-08-12T03:52:23;16.47;;;11.43;;
71696;SDS011;68167;59.120;37.898;2023-08-12T03:54:49;18.40;;;12.07;;
71696;SDS011;68167;59.120;37.898;2023-08-12T03:57:16;14.13;;;11.50;;
71696;SDS011;68167;59.120;37.898;2023-08-12T03:59:43;14.73;;;11.70;;
71696;SDS011;68167;59.120;37.898;2023-08-12T04:02:10;12.40;;;11.10;;
71696;SDS011;68167;59.120;37.898;2023-08-12T04:04:36;14.10;;;11.60;;
71696;SDS011;68167;59.120;37.898;2023-08-12T04:07:03;14.30;;;12.33;;
71696;SDS011;68167;59.120;37.898;2023-08-12T04:09:29;15.60;;;11.87;;
71696;SDS011;68167;59.120;37.898;2023-08-12T04:11:56;16.13;;;11.43;;
71696;SDS011;68167;59.120;37.898;2023-08-12T04:14:22;12.50;;;11.20;;
71696;SDS011;68167;59.120;37.898;2023-08-12T04:16:49;14.43;;;12.20;;
71696;SDS011;68167;59.120;37.898;2023-08-12T04:19:17;13.00;;;11.13;;
71696;SDS011;68167;59.120;37.898;2023-08-12T04:21:43;12.83;;;11.50;;
71696;SDS011;68167;59.120;37.898;2023-08-12T04:24:12;18.00;;;11.50;;
71696;SDS011;68167;59.120;37.898;2023-08-12T04:26:39;13.23;;;11.80;;
71696;SDS011;68167;59.120;37.898;2023-08-12T04:29:06;14.07;;;11.20;;
71696;SDS011;68167;59.120;37.898;2023-08-12T04:31:36;15.17;;;11.77;;
71696;SDS011;68167;59.120;37.898;2023-08-12T04:34:03;12.37;;;11.17;;
71696;SDS011;68167;59.120;37.898;2023-08-12T04:36:31;12.60;;;10.93;;
71696;SDS011;68167;59.120;37.898;2023-08-12T04:38:59;17.93;;;10.07;;
71696;SDS011;68167;59.120;37.898;2023-08-12T04:41:26;14.40;;;10.90;;
71696;SDS011;68167;59.120;37.898;2023-08-12T04:43:54;14.13;;;10.40;;
71696;SDS011;68167;59.120;37.898;2023-08-12T04:46:24;13.30;;;9.50;;
71696;SDS011;68167;59.120;37.898;2023-08-12T04:48:51;10.63;;;9.30;;
71696;SDS011;68167;59.120;37.898;2023-08-12T04:51:18;12.77;;;11.47;;
71696;SDS011;68167;59.120;37.898;2023-08-12T04:53:44;12.80;;;10.80;;
71696;SDS011;68167;59.120;37.898;2023-08-12T04:56:11;11.13;;;10.03;;
71696;SDS011;68167;59.120;37.898;2023-08-12T04:58:38;14.57;;;10.07;;
71696;SDS011;68167;59.120;37.898;2023-08-12T05:01:04;12.97;;;10.77;;
71696;SDS011;68167;59.120;37.898;2023-08-12T05:03:31;13.40;;;11.33;;
71696;SDS011;68167;59.120;37.898;2023-08-12T05:05:59;16.67;;;14.20;;
71696;SDS011;68167;59.120;37.898;2023-08-12T05:08:30;13.47;;;10.77;;
71696;SDS011;68167;59.120;37.898;2023-08-12T05:10:57;11.57;;;10.47;;
71696;SDS011;68167;59.120;37.898;2023-08-12T05:13:24;10.80;;;9.80;;
71696;SDS011;68167;59.120;37.898;2023-08-12T05:15:51;14.30;;;10.73;;
71696;SDS011;68167;59.120;37.898;2023-08-12T05:18:18;14.73;;;10.07;;
71696;SDS011;68167;59.120;37.898;2023-08-12T05:20:44;13.30;;;10.17;;
71696;SDS011;68167;59.120;37.898;2023-08-12T05:23:11;12.43;;;9.57;;
71696;SDS011;68167;59.120;37.898;2023-08-12T05:25:38;10.40;;;9.30;;
71696;SDS011;68167;59.120;37.898;2023-08-12T05:28:05;15.70;;;10.10;;
71696;SDS011;68167;59.120;37.898;2023-08-12T05:30:31;11.30;;;9.97;;
71696;SDS011;68167;59.120;37.898;2023-08-12T05:32:58;12.07;;;9.53;;
71696;SDS011;68167;59.120;37.898;2023-08-12T05:35:24;11.70;;;10.50;;
71696;SDS011;68167;59.120;37.898;2023-08-12T05:37:51;12.63;;;9.83;;
71696;SDS011;68167;59.120;37.898;2023-08-12T05:40:17;10.40;;;9.40;;
71696;SDS011;68167;59.120;37.898;2023-08-12T05:42:44;11.97;;;9.87;;
71696;SDS011;68167;59.120;37.898;2023-08-12T05:45:10;12.73;;;9.67;;
71696;SDS011;68167;59.120;37.898;2023-08-12T05:47:37;10.80;;;9.80;;
71696;SDS011;68167;59.120;37.898;2023-08-12T05:50:03;14.80;;;10.63;;
71696;SDS011;68167;59.120;37.898;2023-08-12T05:52:30;13.43;;;9.97;;
71696;SDS011;68167;59.120;37.898;2023-08-12T05:54:56;10.97;;;9.70;;
71696;SDS011;68167;59.120;37.898;2023-08-12T05:57:23;13.27;;;9.30;;
71696;SDS011;68167;59.120;37.898;2023-08-12T05:59:49;11.00;;;9.30;;
71696;SDS011;68167;59.120;37.898;2023-08-12T06:02:16;12.83;;;10.03;;
71696;SDS011;68167;59.120;37.898;2023-08-12T06:04:44;14.33;;;9.40;;
71696;SDS011;68167;59.120;37.898;2023-08-12T06:07:10;11.37;;;9.70;;
71696;SDS011;68167;59.120;37.898;2023-08-12T06:09:36;16.73;;;9.97;;
71696;SDS011;68167;59.120;37.898;2023-08-12T06:12:03;11.10;;;9.80;;
71696;SDS011;68167;59.120;37.898;2023-08-12T06:14:29;11.90;;;9.13;;
71696;SDS011;68167;59.120;37.898;2023-08-12T06:16:56;15.83;;;9.43;;
71696;SDS011;68167;59.120;37.898;2023-08-12T06:19:22;14.77;;;10.40;;
71696;SDS011;68167;59.120;37.898;2023-08-12T06:21:48;15.75;;;9.88;;
71696;SDS011;68167;59.120;37.898;2023-08-12T06:24:14;13.60;;;9.30;;
71696;SDS011;68167;59.120;37.898;2023-08-12T06:26:41;13.70;;;9.52;;
71696;SDS011;68167;59.120;37.898;2023-08-12T06:29:07;12.35;;;10.13;;
71696;SDS011;68167;59.120;37.898;2023-08-12T06:31:33;12.55;;;9.15;;
71696;SDS011;68167;59.120;37.898;2023-08-12T06:34:00;16.90;;;9.65;;
71696;SDS011;68167;59.120;37.898;2023-08-12T06:36:26;10.27;;;9.10;;
71696;SDS011;68167;59.120;37.898;2023-08-12T06:38:53;16.75;;;10.25;;
71696;SDS011;68167;59.120;37.898;2023-08-12T06:41:19;12.27;;;8.82;;
71696;SDS011;68167;59.120;37.898;2023-08-12T06:43:46;14.43;;;9.80;;
71696;SDS011;68167;59.120;37.898;2023-08-12T06:46:12;13.40;;;9.32;;
71696;SDS011;68167;59.120;37.898;2023-08-12T06:48:39;11.55;;;9.60;;
71696;SDS011;68167;59.120;37.898;2023-08-12T06:51:05;14.85;;;9.43;;
71696;SDS011;68167;59.120;37.898;2023-08-12T06:53:36;13.00;;;9.60;;
71696;SDS011;68167;59.120;37.898;2023-08-12T06:56:04;13.80;;;9.60;;
71696;SDS011;68167;59.120;37.898;2023-08-12T06:58:31;14.65;;;9.60;;
71696;SDS011;68167;59.120;37.898;2023-08-12T07:00:57;12.32;;;9.25;;
71696;SDS011;68167;59.120;37.898;2023-08-12T07:03:25;10.10;;;9.10;;
71696;SDS011;68167;59.120;37.898;2023-08-12T07:05:54;10.45;;;9.23;;
71696;SDS011;68167;59.120;37.898;2023-08-12T07:08:21;10.50;;;9.50;;
71696;SDS011;68167;59.120;37.898;2023-08-12T07:10:48;10.00;;;9.00;;
71696;SDS011;68167;59.120;37.898;2023-08-12T07:13:14;11.90;;;9.38;;
71696;SDS011;68167;59.120;37.898;2023-08-12T07:15:40;11.35;;;8.90;;
71696;SDS011;68167;59.120;37.898;2023-08-12T07:18:07;9.75;;;8.57;;
71696;SDS011;68167;59.120;37.898;2023-08-12T07:20:33;10.85;;;8.88;;
71696;SDS011;68167;59.120;37.898;2023-08-12T07:23:00;10.70;;;9.63;;
71696;SDS011;68167;59.120;37.898;2023-08-12T07:25:26;13.55;;;10.45;;
71696;SDS011;68167;59.120;37.898;2023-08-12T07:27:53;12.57;;;10.00;;
71696;SDS011;68167;59.120;37.898;2023-08-12T07:30:19;14.40;;;10.05;;
71696;SDS011;68167;59.120;37.898;2023-08-12T07:32:48;10.48;;;9.38;;
71696;SDS011;68167;59.120;37.898;2023-08-12T07:35:14;13.88;;;8.98;;
71696;SDS011;68167;59.120;37.898;2023-08-12T07:37:41;16.00;;;10.38;;
71696;SDS011;68167;59.120;37.898;2023-08-12T07:40:07;10.27;;;8.60;;
71696;SDS011;68167;59.120;37.898;2023-08-12T07:42:35;14.52;;;9.68;;
71696;SDS011;68167;59.120;37.898;2023-08-12T07:45:01;11.10;;;9.00;;
71696;SDS011;68167;59.120;37.898;2023-08-12T07:47:29;14.55;;;10.00;;
71696;SDS011;68167;59.120;37.898;2023-08-12T07:49:56;10.52;;;9.43;;
71696;SDS011;68167;59.120;37.898;2023-08-12T07:52:22;10.38;;;9.27;;
71696;SDS011;68167;59.120;37.898;2023-08-12T07:54:48;10.90;;;9.15;;
71696;SDS011;68167;59.120;37.898;2023-08-12T07:57:15;9.77;;;8.77;;
71696;SDS011;68167;59.120;37.898;2023-08-12T07:59:42;11.20;;;9.30;;
71696;SDS011;68167;59.120;37.898;2023-08-12T08:02:08;15.77;;;9.25;;
71696;SDS011;68167;59.120;37.898;2023-08-12T08:04:35;13.05;;;9.65;;
71696;SDS011;68167;59.120;37.898;2023-08-12T08:07:01;9.80;;;8.85;;
71696;SDS011;68167;59.120;37.898;2023-08-12T08:09:28;12.15;;;9.25;;
71696;SDS011;68167;59.120;37.898;2023-08-12T08:11:54;10.00;;;8.73;;
71696;SDS011;68167;59.120;37.898;2023-08-12T08:14:20;10.45;;;8.95;;
71696;SDS011;68167;59.120;37.898;2023-08-12T08:16:47;11.30;;;9.30;;
71696;SDS011;68167;59.120;37.898;2023-08-12T08:19:13;9.60;;;8.60;;
71696;SDS011;68167;59.120;37.898;2023-08-12T08:21:40;10.77;;;8.43;;
71696;SDS011;68167;59.120;37.898;2023-08-12T08:24:06;10.77;;;8.55;;
71696;SDS011;68167;59.120;37.898;2023-08-12T08:26:34;12.35;;;8.38;;
71696;SDS011;68167;59.120;37.898;2023-08-12T08:29:01;10.63;;;7.85;;
71696;SDS011;68167;59.120;37.898;2023-08-12T08:31:27;9.77;;;8.23;;
71696;SDS011;68167;59.120;37.898;2023-08-12T08:33:54;10.60;;;8.60;;
71696;SDS011;68167;59.120;37.898;2023-08-12T08:36:20;10.77;;;8.50;;
71696;SDS011;68167;59.120;37.898;2023-08-12T08:38:47;9.02;;;8.07;;
71696;SDS011;68167;59.120;37.898;2023-08-12T08:41:13;12.80;;;8.95;;
71696;SDS011;68167;59.120;37.898;2023-08-12T08:43:44;10.85;;;8.57;;
71696;SDS011;68167;59.120;37.898;2023-08-12T08:46:14;13.18;;;8.88;;
71696;SDS011;68167;59.120;37.898;2023-08-12T08:48:42;10.32;;;8.80;;
71696;SDS011;68167;59.120;37.898;2023-08-12T08:51:12;9.82;;;8.93;;
71696;SDS011;68167;59.120;37.898;2023-08-12T08:53:38;11.68;;;8.30;;
71696;SDS011;68167;59.120;37.898;2023-08-12T08:56:08;11.13;;;8.35;;
71696;SDS011;68167;59.120;37.898;2023-08-12T08:58:38;11.95;;;8.60;;
71696;SDS011;68167;59.120;37.898;2023-08-12T09:01:07;10.55;;;8.02;;
71696;SDS011;68167;59.120;37.898;2023-08-12T09:03:38;15.48;;;8.23;;
71696;SDS011;68167;59.120;37.898;2023-08-12T09:06:05;11.95;;;8.05;;
71696;SDS011;68167;59.120;37.898;2023-08-12T09:08:31;11.18;;;8.55;;
71696;SDS011;68167;59.120;37.898;2023-08-12T09:10:59;9.20;;;7.95;;
71696;SDS011;68167;59.120;37.898;2023-08-12T09:13:27;13.05;;;8.38;;
71696;SDS011;68167;59.120;37.898;2023-08-12T09:15:54;13.00;;;8.27;;
71696;SDS011;68167;59.120;37.898;2023-08-12T09:18:20;9.52;;;8.10;;
71696;SDS011;68167;59.120;37.898;2023-08-12T09:20:50;11.18;;;7.90;;
71696;SDS011;68167;59.120;37.898;2023-08-12T09:23:16;17.73;;;8.70;;
71696;SDS011;68167;59.120;37.898;2023-08-12T09:25:44;9.73;;;8.73;;
71696;SDS011;68167;59.120;37.898;2023-08-12T09:28:11;13.10;;;8.07;;
71696;SDS011;68167;59.120;37.898;2023-08-12T09:30:38;11.05;;;8.80;;
71696;SDS011;68167;59.120;37.898;2023-08-12T09:33:06;11.00;;;7.60;;
71696;SDS011;68167;59.120;37.898;2023-08-12T09:35:34;15.10;;;7.97;;
71696;SDS011;68167;59.120;37.898;2023-08-12T09:38:06;10.73;;;7.30;;
71696;SDS011;68167;59.120;37.898;2023-08-12T09:40:34;9.35;;;8.45;;
71696;SDS011;68167;59.120;37.898;2023-08-12T09:43:01;9.23;;;8.15;;
71696;SDS011;68167;59.120;37.898;2023-08-12T09:45:29;11.80;;;8.15;;
71696;SDS011;68167;59.120;37.898;2023-08-12T09:47:56;9.25;;;7.90;;
71696;SDS011;68167;59.120;37.898;2023-08-12T09:50:23;9.73;;;8.18;;
71696;SDS011;68167;59.120;37.898;2023-08-12T09:52:54;15.07;;;7.85;;
71696;SDS011;68167;59.120;37.898;2023-08-12T09:55:22;10.65;;;8.32;;
71696;SDS011;68167;59.120;37.898;2023-08-12T09:57:54;10.02;;;8.45;;
71696;SDS011;68167;59.120;37.898;2023-08-12T10:00:21;13.25;;;8.85;;
71696;SDS011;68167;59.120;37.898;2023-08-12T10:02:49;9.25;;;8.30;;
71696;SDS011;68167;59.120;37.898;2023-08-12T10:05:27;11.50;;;8.60;;
71696;SDS011;68167;59.120;37.898;2023-08-12T10:07:54;9.90;;;8.18;;
71696;SDS011;68167;59.120;37.898;2023-08-12T10:10:21;11.77;;;8.10;;
71696;SDS011;68167;59.120;37.898;2023-08-12T10:12:51;11.63;;;8.35;;
71696;SDS011;68167;59.120;37.898;2023-08-12T10:15:17;10.30;;;8.55;;
71696;SDS011;68167;59.120;37.898;2023-08-12T10:17:44;9.23;;;8.30;;
71696;SDS011;68167;59.120;37.898;2023-08-12T10:20:19;9.07;;;8.13;;
71696;SDS011;68167;59.120;37.898;2023-08-12T10:22:50;11.55;;;8.35;;
71696;SDS011;68167;59.120;37.898;2023-08-12T10:25:19;12.23;;;8.52;;
71696;SDS011;68167;59.120;37.898;2023-08-12T10:27:48;12.68;;;9.38;;
71696;SDS011;68167;59.120;37.898;2023-08-12T10:30:15;17.40;;;8.55;;
71696;SDS011;68167;59.120;37.898;2023-08-12T10:32:42;16.10;;;9.80;;
71696;SDS011;68167;59.120;37.898;2023-08-12T10:35:09;11.07;;;8.85;;
71696;SDS011;68167;59.120;37.898;2023-08-12T10:37:35;11.10;;;8.65;;
71696;SDS011;68167;59.120;37.898;2023-08-12T10:40:03;9.63;;;8.48;;
71696;SDS011;68167;59.120;37.898;2023-08-12T10:42:43;12.45;;;9.40;;
71696;SDS011;68167;59.120;37.898;2023-08-12T10:45:12;9.70;;;8.70;;
71696;SDS011;68167;59.120;37.898;2023-08-12T10:47:47;13.10;;;8.75;;
71696;SDS011;68167;59.120;37.898;2023-08-12T10:50:21;11.23;;;9.40;;
71696;SDS011;68167;59.120;37.898;2023-08-12T10:52:51;13.63;;;8.60;;
71696;SDS011;68167;59.120;37.898;2023-08-12T10:57:47;9.82;;;8.93;;
71696;SDS011;68167;59.120;37.898;2023-08-12T11:00:15;17.75;;;9.52;;
71696;SDS011;68167;59.120;37.898;2023-08-12T11:02:56;11.75;;;9.05;;
71696;SDS011;68167;59.120;37.898;2023-08-12T11:05:23;9.75;;;8.70;;
71696;SDS011;68167;59.120;37.898;2023-08-12T11:07:57;11.00;;;9.15;;
71696;SDS011;68167;59.120;37.898;2023-08-12T11:10:27;11.80;;;9.02;;
71696;SDS011;68167;59.120;37.898;2023-08-12T11:12:57;14.25;;;9.15;;
71696;SDS011;68167;59.120;37.898;2023-08-12T11:15:34;10.25;;;9.25;;
71696;SDS011;68167;59.120;37.898;2023-08-12T11:18:09;11.07;;;9.38;;
71696;SDS011;68167;59.120;37.898;2023-08-12T11:20:37;11.32;;;9.40;;
71696;SDS011;68167;59.120;37.898;2023-08-12T11:23:04;10.73;;;9.48;;
71696;SDS011;68167;59.120;37.898;2023-08-12T11:25:33;11.55;;;9.45;;
71696;SDS011;68167;59.120;37.898;2023-08-12T11:28:01;13.63;;;9.55;;
71696;SDS011;68167;59.120;37.898;2023-08-12T11:30:28;12.18;;;9.35;;
71696;SDS011;68167;59.120;37.898;2023-08-12T11:32:54;14.32;;;9.38;;
71696;SDS011;68167;59.120;37.898;2023-08-12T11:35:22;12.93;;;9.77;;
71696;SDS011;68167;59.120;37.898;2023-08-12T11:37:51;10.48;;;8.85;;
71696;SDS011;68167;59.120;37.898;2023-08-12T11:40:19;11.70;;;9.60;;
71696;SDS011;68167;59.120;37.898;2023-08-12T11:42:46;12.80;;;9.60;;
71696;SDS011;68167;59.120;37.898;2023-08-12T11:45:15;11.80;;;9.30;;
71696;SDS011;68167;59.120;37.898;2023-08-12T11:47:44;11.07;;;9.25;;
71696;SDS011;68167;59.120;37.898;2023-08-12T11:50:19;11.63;;;9.35;;
71696;SDS011;68167;59.120;37.898;2023-08-12T11:52:47;10.15;;;8.95;;
71696;SDS011;68167;59.120;37.898;2023-08-12T11:55:14;10.93;;;9.07;;
71696;SDS011;68167;59.120;37.898;2023-08-12T11:57:41;10.55;;;9.45;;
71696;SDS011;68167;59.120;37.898;2023-08-12T12:00:10;13.40;;;9.90;;
71696;SDS011;68167;59.120;37.898;2023-08-12T12:02:50;11.90;;;9.38;;
71696;SDS011;68167;59.120;37.898;2023-08-12T12:05:20;10.27;;;9.27;;
71696;SDS011;68167;59.120;37.898;2023-08-12T12:07:49;11.88;;;10.30;;
71696;SDS011;68167;59.120;37.898;2023-08-12T12:10:34;14.10;;;10.23;;
71696;SDS011;68167;59.120;37.898;2023-08-12T12:13:02;11.68;;;10.15;;
71696;SDS011;68167;59.120;37.898;2023-08-12T12:15:30;12.98;;;9.55;;
71696;SDS011;68167;59.120;37.898;2023-08-12T12:17:57;13.55;;;9.85;;
71696;SDS011;68167;59.120;37.898;2023-08-12T12:20:24;11.45;;;10.25;;
71696;SDS011;68167;59.120;37.898;2023-08-12T12:22:53;11.75;;;10.52;;
71696;SDS011;68167;59.120;37.898;2023-08-12T12:25:20;15.60;;;10.77;;
71696;SDS011;68167;59.120;37.898;2023-08-12T12:27:47;15.70;;;10.55;;
71696;SDS011;68167;59.120;37.898;2023-08-12T12:30:15;14.63;;;10.60;;
71696;SDS011;68167;59.120;37.898;2023-08-12T12:32:42;12.07;;;9.95;;
71696;SDS011;68167;59.120;37.898;2023-08-12T12:35:08;12.40;;;11.13;;
71696;SDS011;68167;59.120;37.898;2023-08-12T12:37:35;12.45;;;9.93;;
71696;SDS011;68167;59.120;37.898;2023-08-12T12:40:02;14.93;;;11.07;;
71696;SDS011;68167;59.120;37.898;2023-08-12T12:42:30;14.00;;;10.95;;
71696;SDS011;68167;59.120;37.898;2023-08-12T12:44:56;12.63;;;10.38;;
71696;SDS011;68167;59.120;37.898;2023-08-12T12:47:22;12.90;;;11.02;;
71696;SDS011;68167;59.120;37.898;2023-08-12T12:49:48;14.52;;;12.98;;
71696;SDS011;68167;59.120;37.898;2023-08-12T12:52:15;12.13;;;10.38;;
71696;SDS011;68167;59.120;37.898;2023-08-12T12:54:41;11.75;;;10.63;;
71696;SDS011;68167;59.120;37.898;2023-08-12T12:57:07;16.25;;;11.43;;
71696;SDS011;68167;59.120;37.898;2023-08-12T12:59:34;14.52;;;10.65;;
71696;SDS011;68167;59.120;37.898;2023-08-12T13:02:00;14.73;;;10.15;;
71696;SDS011;68167;59.120;37.898;2023-08-12T13:04:26;12.65;;;10.90;;
71696;SDS011;68167;59.120;37.898;2023-08-12T13:06:52;13.60;;;10.93;;
71696;SDS011;68167;59.120;37.898;2023-08-12T13:09:19;11.43;;;10.05;;
71696;SDS011;68167;59.120;37.898;2023-08-12T13:11:45;12.45;;;10.57;;
71696;SDS011;68167;59.120;37.898;2023-08-12T13:14:11;13.25;;;10.38;;
71696;SDS011;68167;59.120;37.898;2023-08-12T13:16:38;13.15;;;10.88;;
71696;SDS011;68167;59.120;37.898;2023-08-12T13:19:04;15.32;;;12.13;;
71696;SDS011;68167;59.120;37.898;2023-08-12T13:21:30;16.77;;;11.43;;
71696;SDS011;68167;59.120;37.898;2023-08-12T13:23:58;12.00;;;10.77;;
71696;SDS011;68167;59.120;37.898;2023-08-12T13:26:24;11.43;;;10.35;;
71696;SDS011;68167;59.120;37.898;2023-08-12T13:28:50;14.60;;;13.20;;
71696;SDS011;68167;59.120;37.898;2023-08-12T13:31:17;16.40;;;14.45;;
71696;SDS011;68167;59.120;37.898;2023-08-12T13:33:43;14.07;;;11.77;;
71696;SDS011;68167;59.120;37.898;2023-08-12T13:36:09;12.32;;;11.02;;
71696;SDS011;68167;59.120;37.898;2023-08-12T13:38:35;14.65;;;11.45;;
71696;SDS011;68167;59.120;37.898;2023-08-12T13:41:02;13.00;;;11.35;;
71696;SDS011;68167;59.120;37.898;2023-08-12T13:43:28;12.82;;;11.13;;
71696;SDS011;68167;59.120;37.898;2023-08-12T13:45:56;12.55;;;11.25;;
71696;SDS011;68167;59.120;37.898;2023-08-12T13:48:22;12.68;;;11.43;;
71696;SDS011;68167;59.120;37.898;2023-08-12T13:50:48;15.73;;;13.35;;
71696;SDS011;68167;59.120;37.898;2023-08-12T13:53:16;13.75;;;11.20;;
71696;SDS011;68167;59.120;37.898;2023-08-12T13:55:42;11.90;;;10.60;;
71696;SDS011;68167;59.120;37.898;2023-08-12T13:58:08;14.63;;;12.52;;
71696;SDS011;68167;59.120;37.898;2023-08-12T14:00:35;14.75;;;12.05;;
71696;SDS011;68167;59.120;37.898;2023-08-12T14:03:01;13.77;;;11.68;;
71696;SDS011;68167;59.120;37.898;2023-08-12T14:05:27;14.20;;;12.25;;
71696;SDS011;68167;59.120;37.898;2023-08-12T14:07:53;15.32;;;11.85;;
71696;SDS011;68167;59.120;37.898;2023-08-12T14:10:20;17.67;;;11.85;;
71696;SDS011;68167;59.120;37.898;2023-08-12T14:12:46;15.95;;;12.35;;
71696;SDS011;68167;59.120;37.898;2023-08-12T14:15:14;13.93;;;10.95;;
71696;SDS011;68167;59.120;37.898;2023-08-12T14:17:40;15.20;;;12.02;;
71696;SDS011;68167;59.120;37.898;2023-08-12T14:20:07;14.73;;;12.05;;
71696;SDS011;68167;59.120;37.898;2023-08-12T14:22:36;16.48;;;12.65;;